Time;durP1;ratioP1;P1;durP2;ratioP2;P2;SDS_P1;SDS_P2;PMS_P1;PMS_P2;Temp;Humidity;BMP_temperature;BMP_pressure;BME280_temperature;BME280_humidity;BME280_pressure;Samples;Min_cycle;Max_cycle;Signal;HPM_P1;HPM_P2
2023/04/18 00:01:21;;;;;;;1.17;0.90;;;;;;;8.64;47.52;92338.81;4991656;28;20050;-75
2023/04/18 00:03:48;;;;;;;1.00;0.90;;;;;;;8.66;47.81;92336.69;4991210;28;20395;-76
2023/04/18 00:06:14;;;;;;;0.98;0.82;;;;;;;8.68;47.54;92329.38;4988976;28;20037;-75
2023/04/18 00:08:39;;;;;;;0.82;0.80;;;;;;;8.71;47.93;92336.63;4987409;28;20038;-76
2023/04/18 00:11:05;;;;;;;1.42;0.90;;;;;;;8.71;47.81;92328.81;4990130;28;20034;-77
2023/04/18 00:13:31;;;;;;;1.48;1.00;;;;;;;8.73;47.73;92327.47;4992337;28;20030;-77
2023/04/18 00:15:57;;;;;;;1.05;0.90;;;;;;;8.75;47.61;92321.97;4996042;28;20073;-77
2023/04/18 00:18:25;;;;;;;1.00;0.90;;;;;;;8.79;47.17;92323.00;4989235;28;20073;-77
2023/04/18 00:20:51;;;;;;;0.82;0.82;;;;;;;8.77;46.92;92319.88;4991437;28;20385;-77
2023/04/18 00:23:20;;;;;;;0.80;0.80;;;;;;;8.81;46.73;92320.09;4988748;28;20124;-77
2023/04/18 00:25:46;;;;;;;0.70;0.70;;;;;;;8.83;46.50;92318.78;4991469;28;20038;-77
2023/04/18 00:28:12;;;;;;;0.82;0.70;;;;;;;8.86;46.48;92320.81;4989179;28;20104;-77
2023/04/18 00:30:37;;;;;;;1.05;0.90;;;;;;;8.85;46.44;92315.84;4986948;28;20499;-77
2023/04/18 00:33:03;;;;;;;0.77;0.73;;;;;;;8.86;46.85;92320.81;4990233;28;20130;-77
2023/04/18 00:35:29;;;;;;;1.00;0.90;;;;;;;8.86;47.13;92315.59;4987461;28;20034;-77
2023/04/18 00:37:54;;;;;;;1.10;1.00;;;;;;;8.86;46.86;92318.19;4988110;28;20327;-77
2023/04/18 00:40:20;;;;;;;0.77;0.77;;;;;;;8.93;46.82;92326.47;4989426;28;20038;-76
2023/04/18 00:42:46;;;;;;;0.80;0.80;;;;;;;8.91;46.91;92315.53;4989860;28;20038;-77
2023/04/18 00:45:12;;;;;;;0.73;0.73;;;;;;;8.90;46.46;92313.97;4991229;28;20041;-76
2023/04/18 00:47:38;;;;;;;0.70;0.70;;;;;;;8.92;46.10;92322.31;4987551;28;20038;-77
2023/04/18 00:50:04;;;;;;;0.90;0.70;;;;;;;8.99;45.68;92310.75;4990141;28;20038;-77
2023/04/18 00:52:32;;;;;;;0.85;0.82;;;;;;;9.00;45.96;92312.31;4989635;28;20483;-77
2023/04/18 00:54:59;;;;;;;0.73;0.73;;;;;;;9.03;45.95;92307.31;4989262;28;21155;-77
2023/04/18 00:57:24;;;;;;;0.77;0.77;;;;;;;9.04;45.56;92311.47;4984411;28;20492;-77
2023/04/18 00:59:50;;;;;;;0.75;0.75;;;;;;;9.05;45.52;92309.63;4988469;28;20041;-77
2023/04/18 01:02:16;;;;;;;0.70;0.70;;;;;;;9.05;45.62;92304.41;4988007;28;20052;-77
2023/04/18 01:04:42;;;;;;;0.73;0.73;;;;;;;9.03;45.82;92307.31;4985440;28;20034;-77
2023/04/18 01:07:08;;;;;;;0.90;0.90;;;;;;;9.14;44.62;92305.31;4986239;28;20069;-77
2023/04/18 01:09:35;;;;;;;1.38;0.82;;;;;;;9.13;44.92;92301.16;4988009;28;20066;-77
2023/04/18 01:12:01;;;;;;;0.80;0.80;;;;;;;9.17;44.05;92312.63;5002536;28;20042;-77
2023/04/18 01:14:26;;;;;;;0.80;0.80;;;;;;;9.17;44.57;92302.16;4988935;28;20096;-77
2023/04/18 01:16:52;;;;;;;0.82;0.70;;;;;;;9.16;44.72;92301.41;4988721;28;20033;-77
2023/04/18 01:19:18;;;;;;;0.70;0.70;;;;;;;9.12;44.88;92305.63;4986919;28;20085;-77
2023/04/18 01:21:44;;;;;;;0.73;0.70;;;;;;;9.17;44.53;92307.38;4985326;28;20026;-77
2023/04/18 01:24:14;;;;;;;0.90;0.80;;;;;;;9.15;44.75;92296.44;4988604;28;20073;-77
2023/04/18 01:26:42;;;;;;;0.80;0.65;;;;;;;9.23;44.44;92295.81;5000856;28;20136;-76
2023/04/18 01:29:08;;;;;;;1.00;0.90;;;;;;;9.28;44.39;92298.38;4986294;28;20056;-76
2023/04/18 01:31:38;;;;;;;0.95;0.80;;;;;;;9.28;44.33;92293.13;4989520;28;20508;-77
2023/04/18 01:34:04;;;;;;;0.80;0.80;;;;;;;9.38;44.83;92292.97;5006104;28;20074;-77
2023/04/18 01:36:31;;;;;;;0.88;0.77;;;;;;;9.33;43.83;92294.91;4975241;28;20038;-76
2023/04/18 01:38:58;;;;;;;1.23;0.82;;;;;;;9.29;44.44;92289.44;4992423;28;20117;-77
2023/04/18 01:41:23;;;;;;;1.10;0.95;;;;;;;9.25;44.26;92288.47;4994318;28;20034;-77
2023/04/18 01:43:49;;;;;;;0.77;0.77;;;;;;;9.23;45.57;92282.78;4991257;28;20531;-77
2023/04/18 01:46:15;;;;;;;1.23;1.02;;;;;;;9.17;46.30;92279.44;4993014;28;20077;-77
2023/04/18 01:48:41;;;;;;;1.02;0.88;;;;;;;9.10;46.33;92281.63;4989972;28;20476;-77
2023/04/18 01:51:07;;;;;;;1.05;0.88;;;;;;;9.04;47.53;92284.59;4993593;28;20121;-77
2023/04/18 01:53:33;;;;;;;0.90;0.80;;;;;;;8.99;48.30;92276.81;4993977;28;20125;-77
2023/04/18 01:55:59;;;;;;;1.05;0.90;;;;;;;8.92;49.00;92285.00;4993351;28;20134;-77
2023/04/18 01:58:25;;;;;;;4.05;1.13;;;;;;;8.91;48.88;92281.59;4994595;28;20034;-77
2023/04/18 02:00:56;;;;;;;0.90;0.80;;;;;;;8.83;50.13;92279.63;4989093;28;20385;-76
2023/04/18 02:03:22;;;;;;;3.97;1.00;;;;;;;8.81;51.04;92279.13;5006610;28;20042;-77
2023/04/18 02:05:48;;;;;;;1.25;1.05;;;;;;;8.77;51.02;92278.13;4990401;28;20441;-77
2023/04/18 02:08:14;;;;;;;1.35;0.90;;;;;;;8.76;50.85;92273.97;4992723;28;20071;-77
2023/04/18 02:10:40;;;;;;;1.80;1.08;;;;;;;8.72;52.18;92284.16;4991157;28;20038;-77
2023/04/18 02:13:06;;;;;;;2.03;0.90;;;;;;;8.72;52.25;92280.78;4993351;28;20030;-76
2023/04/18 02:15:32;;;;;;;1.55;1.25;;;;;;;8.68;52.37;92279.78;4990903;28;20046;-76
2023/04/18 02:18:01;;;;;;;1.80;1.00;;;;;;;8.63;52.18;92277.25;4993876;28;20034;-76
2023/04/18 02:20:32;;;;;;;3.50;1.00;;;;;;;8.62;51.99;92270.47;4992999;28;20455;-77
2023/04/18 02:23:00;;;;;;;1.45;1.17;;;;;;;8.60;50.83;92272.56;5007046;28;20042;-76
2023/04/18 02:25:28;;;;;;;1.02;0.80;;;;;;;8.60;48.11;92280.41;4992979;28;20475;-76
2023/04/18 02:27:55;;;;;;;0.70;0.70;;;;;;;8.67;48.42;92278.22;5007943;28;20129;-76
2023/04/18 02:30:21;;;;;;;0.75;0.75;;;;;;;8.67;47.87;92278.22;4992060;28;20057;-76
2023/04/18 02:32:50;;;;;;;1.15;0.93;;;;;;;8.68;47.13;92279.78;4990910;28;20335;-76
2023/04/18 02:35:17;;;;;;;0.70;0.70;;;;;;;8.71;46.60;92274.81;4991736;28;20038;-76
2023/04/18 02:37:42;;;;;;;0.73;0.70;;;;;;;8.68;47.54;92274.56;4993710;28;20410;-76
2023/04/18 02:40:11;;;;;;;0.98;0.80;;;;;;;8.66;48.01;92279.28;4993180;28;20551;-76
2023/04/18 02:42:37;;;;;;;1.65;0.90;;;;;;;8.59;47.59;92278.84;4992709;28;20034;-76
2023/04/18 02:45:04;;;;;;;0.82;0.82;;;;;;;8.55;48.88;92282.00;4991501;28;20479;-76
2023/04/18 02:47:30;;;;;;;0.80;0.80;;;;;;;8.47;49.35;92280.03;4975658;28;20463;-76
2023/04/18 02:49:56;;;;;;;0.77;0.77;;;;;;;8.40;49.42;92279.59;4993836;28;20037;-75
2023/04/18 02:52:24;;;;;;;0.82;0.80;;;;;;;8.32;49.94;92282.75;4990813;28;20041;-76
2023/04/18 02:54:51;;;;;;;1.10;0.90;;;;;;;8.24;50.17;92280.75;4990189;28;20403;-77
2023/04/18 02:57:22;;;;;;;1.20;0.90;;;;;;;8.15;51.21;92283.19;4992551;28;20399;-77
2023/04/18 03:00:20;;;;;;;1.40;1.00;;;;;;;8.06;50.98;92279.59;4992037;28;20132;-77
2023/04/18 03:03:11;;;;;;;1.50;0.90;;;;;;;7.99;51.51;92284.38;4991594;28;20069;-78
2023/04/18 03:05:43;;;;;;;1.52;1.10;;;;;;;7.90;52.68;92281.56;4991013;28;20039;-77
2023/04/18 03:08:09;;;;;;;2.22;1.20;;;;;;;7.83;53.85;92281.13;4992433;28;20412;-77
2023/04/18 03:10:36;;;;;;;2.17;1.30;;;;;;;7.71;55.98;92279.66;4998957;28;20050;-76
2023/04/18 03:13:02;;;;;;;1.92;1.20;;;;;;;7.62;56.79;92280.50;4991850;28;20042;-76
2023/04/18 03:15:30;;;;;;;1.73;1.30;;;;;;;7.55;57.15;92274.84;4973969;28;20419;-76
2023/04/18 03:17:56;;;;;;;2.67;1.30;;;;;;;7.56;57.86;92281.59;4989693;28;20303;-76
2023/04/18 03:20:23;;;;;;;2.10;1.30;;;;;;;7.48;58.62;92278.53;4991248;28;20403;-75
2023/04/18 03:22:50;;;;;;;3.30;1.40;;;;;;;7.44;58.80;92280.09;4991211;28;20038;-76
2023/04/18 03:25:20;;;;;;;1.88;1.30;;;;;;;7.40;60.27;92273.88;4990222;28;20403;-76
2023/04/18 03:27:50;;;;;;;5.13;1.50;;;;;;;7.39;59.90;92289.78;4991941;28;20035;-75
2023/04/18 03:30:19;;;;;;;1.88;1.35;;;;;;;7.37;60.52;92284.84;4990424;28;20049;-76
2023/04/18 03:32:51;;;;;;;2.35;1.40;;;;;;;7.37;60.83;92289.28;4990307;28;20062;-75
2023/04/18 03:35:17;;;;;;;1.90;1.35;;;;;;;7.35;62.00;92281.72;4989167;28;20070;-76
2023/04/18 03:37:43;;;;;;;1.75;1.20;;;;;;;7.26;62.23;92284.13;4973753;28;20543;-76
2023/04/18 03:40:10;;;;;;;4.25;1.35;;;;;;;7.21;61.63;92284.16;4975396;28;20484;-76
2023/04/18 03:42:35;;;;;;;4.63;1.30;;;;;;;7.18;61.63;92276.09;4992098;28;20034;-75
2023/04/18 03:45:01;;;;;;;1.38;1.08;;;;;;;7.17;62.25;92283.16;4989546;28;20042;-75
2023/04/18 03:47:30;;;;;;;1.75;1.23;;;;;;;7.15;62.50;92274.81;4989137;28;20038;-77
2023/04/18 03:49:57;;;;;;;1.92;1.30;;;;;;;7.11;61.87;92271.19;4957826;28;20026;-77
2023/04/18 03:52:24;;;;;;;1.50;1.10;;;;;;;7.12;61.10;92272.00;4991027;28;20104;-77
2023/04/18 03:54:50;;;;;;;1.75;1.08;;;;;;;7.10;59.56;92274.88;4989962;28;20499;-75
2023/04/18 03:57:18;;;;;;;1.52;1.20;;;;;;;7.07;59.05;92276.19;4990375;28;20130;-75
2023/04/18 03:59:44;;;;;;;1.48;1.10;;;;;;;7.07;58.87;92278.00;5007583;28;20042;-76
2023/04/18 04:02:10;;;;;;;1.58;1.00;;;;;;;7.05;58.47;92272.31;4989203;28;20050;-76
2023/04/18 04:04:35;;;;;;;1.35;1.00;;;;;;;7.06;56.95;92279.03;5004464;28;20030;-76
2023/04/18 04:07:01;;;;;;;1.75;1.20;;;;;;;7.07;57.46;92272.81;4989633;28;20077;-76
2023/04/18 04:09:27;;;;;;;1.45;1.00;;;;;;;7.03;58.08;92284.81;4991332;28;20042;-76
2023/04/18 04:11:52;;;;;;;0.70;0.70;;;;;;;6.99;57.69;92284.53;4990730;28;20496;-77
2023/04/18 04:14:18;;;;;;;0.85;0.85;;;;;;;6.97;57.07;92286.63;4990451;28;20560;-77
2023/04/18 04:16:45;;;;;;;1.25;0.85;;;;;;;6.97;56.98;92291.06;4988223;28;20034;-77
2023/04/18 04:19:13;;;;;;;1.38;1.00;;;;;;;6.95;57.00;92293.16;4988790;28;20084;-77
2023/04/18 04:21:47;;;;;;;1.08;0.90;;;;;;;6.91;57.14;92286.94;4988295;28;20076;-77
2023/04/18 04:24:15;;;;;;;1.05;0.88;;;;;;;6.88;56.59;92283.81;4974974;28;20085;-76
2023/04/18 04:26:45;;;;;;;1.00;0.90;;;;;;;6.83;57.17;92291.66;4991234;28;20065;-77
2023/04/18 04:29:18;;;;;;;1.05;0.95;;;;;;;6.77;56.92;92287.50;4983572;28;20116;-78
2023/04/18 04:31:46;;;;;;;1.00;0.90;;;;;;;6.77;56.59;92297.13;5006960;28;20524;-76
2023/04/18 04:34:16;;;;;;;1.15;1.00;;;;;;;6.76;56.19;92293.78;4991834;28;20034;-78
2023/04/18 04:36:43;;;;;;;1.27;1.00;;;;;;;6.80;56.73;92291.41;4990925;28;20404;-81
2023/04/18 04:39:11;;;;;;;1.10;1.00;;;;;;;6.79;56.90;92295.06;4992583;28;20050;-81
2023/04/18 04:42:03;;;;;;;1.00;0.90;;;;;;;6.78;56.55;92294.28;4993079;28;20057;-81
2023/04/18 04:44:37;;;;;;;1.13;0.98;;;;;;;6.78;56.58;92302.09;4993652;28;20042;-80
2023/04/18 04:47:02;;;;;;;1.63;1.05;;;;;;;6.78;57.51;92298.72;4993691;28;20070;-79
2023/04/18 04:49:34;;;;;;;1.42;1.00;;;;;;;6.77;58.14;92300.50;4992952;28;20522;-80
2023/04/18 04:52:01;;;;;;;1.80;1.00;;;;;;;6.79;59.46;92302.84;4992238;28;20030;-79
2023/04/18 04:54:27;;;;;;;1.60;1.10;;;;;;;6.82;59.42;92302.31;4992821;28;20030;-78
2023/04/18 04:56:53;;;;;;;1.95;1.20;;;;;;;6.86;59.65;92301.50;4994263;28;20125;-78
2023/04/18 04:59:18;;;;;;;2.03;1.30;;;;;;;6.91;59.88;92305.16;4992013;28;20050;-80
2023/04/18 05:01:45;;;;;;;1.65;1.17;;;;;;;6.96;60.25;92310.31;4992437;28;20042;-78
2023/04/18 05:04:11;;;;;;;1.92;1.10;;;;;;;7.03;61.24;92306.38;4978054;28;20042;-79
2023/04/18 05:06:37;;;;;;;3.30;1.40;;;;;;;7.06;61.93;92310.28;4995080;28;20049;-78
2023/04/18 05:09:02;;;;;;;1.70;1.10;;;;;;;7.07;61.67;92317.06;4996924;28;20038;-78
2023/04/18 05:11:28;;;;;;;1.27;1.00;;;;;;;7.08;61.34;92310.78;4998474;28;20395;-78
2023/04/18 05:13:53;;;;;;;1.10;1.00;;;;;;;7.07;61.00;92309.25;4991971;28;20039;-79
2023/04/18 05:16:19;;;;;;;2.08;1.10;;;;;;;7.06;60.59;92312.88;4996484;28;20038;-79
2023/04/18 05:18:45;;;;;;;1.10;1.00;;;;;;;7.05;59.91;92313.94;4997060;28;20034;-78
2023/04/18 05:21:10;;;;;;;2.72;1.17;;;;;;;7.07;60.17;92317.06;5005590;28;20133;-81
2023/04/18 05:23:36;;;;;;;1.25;1.00;;;;;;;7.11;61.40;92318.06;4997258;28;20057;-79
2023/04/18 05:26:05;;;;;;;3.30;1.38;;;;;;;7.13;60.81;92321.16;4994325;28;20022;-78
2023/04/18 05:28:31;;;;;;;1.75;1.20;;;;;;;7.23;60.47;92325.56;4979542;28;20038;-79
2023/04/18 05:31:00;;;;;;;1.30;0.98;;;;;;;7.38;60.16;92329.88;4997381;28;20057;-79
2023/04/18 05:33:31;;;;;;;1.70;1.20;;;;;;;7.53;60.09;92323.81;4999213;28;20064;-80
2023/04/18 05:35:58;;;;;;;3.13;1.20;;;;;;;7.69;60.06;92328.63;4997337;28;20413;-79
2023/04/18 05:38:24;;;;;;;1.88;1.20;;;;;;;7.91;59.61;92330.06;4998891;28;20040;-79
2023/04/18 05:40:54;;;;;;;2.15;1.30;;;;;;;8.11;59.23;92336.94;4996874;28;20113;-79
2023/04/18 05:43:20;;;;;;;1.48;1.20;;;;;;;8.33;59.26;92336.47;4996216;28;20038;-79
2023/04/18 05:45:46;;;;;;;1.80;1.13;;;;;;;8.52;58.35;92334.75;4996656;28;20049;-79
2023/04/18 05:48:12;;;;;;;3.42;1.08;;;;;;;8.77;58.41;92338.16;4998928;28;20168;-78
2023/04/18 05:50:38;;;;;;;3.92;1.27;;;;;;;8.95;56.53;92337.41;4997738;28;20396;-78
2023/04/18 05:53:04;;;;;;;2.75;1.40;;;;;;;9.14;56.34;92332.25;4996548;28;20050;-78
2023/04/18 05:55:30;;;;;;;3.35;1.15;;;;;;;9.34;56.22;92340.84;4996401;28;20042;-78
2023/04/18 05:57:55;;;;;;;1.48;1.13;;;;;;;9.57;55.81;92341.88;4995974;28;20034;-80
2023/04/18 06:00:21;;;;;;;2.47;1.40;;;;;;;9.79;55.30;92344.69;4998128;28;20090;-77
2023/04/18 06:02:47;;;;;;;6.75;1.40;;;;;;;10.02;53.28;92350.09;4997788;28;20046;-78
2023/04/18 06:05:12;;;;;;;3.97;1.50;;;;;;;10.24;52.87;92344.25;4997273;28;20408;-79
2023/04/18 06:07:38;;;;;;;1.38;1.10;;;;;;;10.51;52.82;92348.78;4996886;28;20037;-80
2023/04/18 06:10:07;;;;;;;1.77;1.10;;;;;;;10.79;52.65;92344.38;4986139;28;20508;-80
2023/04/18 06:12:33;;;;;;;1.65;1.10;;;;;;;11.11;51.37;92349.81;4978370;28;20086;-79
2023/04/18 06:14:59;;;;;;;5.68;1.30;;;;;;;11.41;50.24;92346.56;4976855;28;20066;-79
2023/04/18 06:17:25;;;;;;;1.88;1.10;;;;;;;11.75;49.46;92347.94;4984721;28;20133;-80
2023/04/18 06:19:50;;;;;;;2.45;1.40;;;;;;;12.44;46.38;92352.16;4996139;28;20128;-79
2023/04/18 06:22:16;;;;;;;1.90;1.20;;;;;;;13.61;43.13;92353.53;4997488;28;20038;-79
2023/04/18 06:24:41;;;;;;;1.20;1.10;;;;;;;14.91;40.96;92354.53;4997079;28;20054;-80
2023/04/18 06:27:07;;;;;;;1.60;1.20;;;;;;;16.13;40.15;92357.28;4997593;28;20039;-80
2023/04/18 06:29:33;;;;;;;2.30;1.23;;;;;;;17.04;36.14;92353.94;4996581;28;20046;-80
2023/04/18 06:31:59;;;;;;;1.15;0.90;;;;;;;17.76;35.38;92359.53;4996389;28;20480;-79
2023/04/18 06:34:24;;;;;;;1.30;0.90;;;;;;;18.02;34.43;92366.38;4996789;28;20053;-79
2023/04/18 06:36:51;;;;;;;1.23;0.82;;;;;;;17.98;34.92;92355.69;4997657;28;20061;-80
2023/04/18 06:39:16;;;;;;;7.65;1.40;;;;;;;18.17;33.79;92347.13;4997635;28;20041;-79
2023/04/18 06:41:42;;;;;;;2.22;1.10;;;;;;;18.47;34.52;92350.22;4980504;28;20604;-80
2023/04/18 06:44:07;;;;;;;1.75;1.10;;;;;;;18.69;35.04;92350.78;4997808;28;20112;-81
2023/04/18 06:46:33;;;;;;;3.92;1.20;;;;;;;19.16;32.35;92351.97;4996887;28;20026;-81
2023/04/18 06:48:59;;;;;;;1.60;0.85;;;;;;;20.11;30.30;92347.31;4996711;28;20034;-81
2023/04/18 06:51:26;;;;;;;7.88;1.70;;;;;;;19.59;31.03;92342.34;4998061;28;20038;-80
2023/04/18 06:53:52;;;;;;;15.65;2.47;;;;;;;18.68;33.43;92349.25;4997637;28;20041;-80
2023/04/18 06:56:21;;;;;;;1.65;1.08;;;;;;;18.11;34.75;92343.19;4980164;28;20042;-81
2023/04/18 06:58:47;;;;;;;3.17;1.10;;;;;;;17.61;35.01;92350.41;4997701;28;20121;-80
2023/04/18 07:01:13;;;;;;;1.55;1.00;;;;;;;17.23;35.37;92359.47;4995921;28;20092;-80
2023/04/18 07:03:38;;;;;;;1.48;1.20;;;;;;;16.89;36.59;92359.84;4997808;28;20038;-77
2023/04/18 07:06:05;;;;;;;2.55;0.98;;;;;;;16.90;36.37;92356.13;4996996;28;20586;-80
2023/04/18 07:08:30;;;;;;;3.22;1.10;;;;;;;16.07;36.49;92352.50;4996455;28;20156;-80
2023/04/18 07:10:56;;;;;;;2.70;1.17;;;;;;;16.05;38.43;92352.06;4997089;28;20042;-80
2023/04/18 07:13:21;;;;;;;2.17;1.17;;;;;;;15.98;37.49;92348.06;4996061;28;20038;-80
2023/04/18 07:15:47;;;;;;;3.83;1.55;;;;;;;16.49;37.35;92352.47;4996842;28;20121;-79
2023/04/18 07:18:13;;;;;;;4.22;1.33;;;;;;;16.31;38.41;92354.50;4996708;28;20558;-79
2023/04/18 07:20:39;;;;;;;2.60;1.30;;;;;;;15.88;39.97;92356.38;4995444;28;20042;-79
2023/04/18 07:23:05;;;;;;;5.30;1.40;;;;;;;15.70;40.39;92358.34;4995496;28;20046;-79
2023/04/18 07:25:30;;;;;;;3.00;1.20;;;;;;;15.41;40.34;92359.13;4963815;28;20037;-78
2023/04/18 07:27:56;;;;;;;2.53;1.17;;;;;;;15.29;41.00;92359.00;4995479;28;20035;-78
2023/04/18 07:30:22;;;;;;;4.38;1.38;;;;;;;15.42;40.27;92355.38;4995155;28;20054;-78
2023/04/18 07:32:48;;;;;;;3.72;1.40;;;;;;;15.80;40.71;92357.19;4995138;28;20030;-79
2023/04/18 07:35:14;;;;;;;3.78;1.30;;;;;;;16.08;39.54;92357.47;4997012;28;20038;-80
2023/04/18 07:37:39;;;;;;;2.53;1.08;;;;;;;16.01;38.03;92355.34;4995586;28;20038;-78
2023/04/18 07:40:05;;;;;;;2.85;1.25;;;;;;;15.52;39.33;92362.94;4995045;28;20058;-78
2023/04/18 07:42:32;;;;;;;2.05;1.20;;;;;;;15.19;40.46;92363.56;4996089;28;20039;-78
2023/04/18 07:44:58;;;;;;;3.53;1.38;;;;;;;15.17;40.37;92355.19;4996112;28;20104;-77
2023/04/18 07:47:25;;;;;;;1.45;1.00;;;;;;;14.93;40.66;92361.03;4996128;28;20038;-79
2023/04/18 07:49:51;;;;;;;2.17;1.13;;;;;;;14.66;41.72;92356.94;4993902;28;20076;-79
2023/04/18 07:52:18;;;;;;;2.53;1.10;;;;;;;14.86;41.43;92360.75;4995755;28;20455;-78
2023/04/18 07:54:43;;;;;;;1.67;1.13;;;;;;;14.89;40.20;92367.25;4995306;28;20038;-78
2023/04/18 07:57:09;;;;;;;1.45;1.17;;;;;;;14.69;39.59;92358.16;4995906;28;20034;-77
2023/04/18 07:59:35;;;;;;;2.38;1.08;;;;;;;14.54;41.16;92364.66;4994718;28;20504;-78
2023/04/18 08:02:01;;;;;;;2.08;1.05;;;;;;;14.56;41.64;92359.88;4994692;28;20041;-79
2023/04/18 08:04:27;;;;;;;2.22;1.27;;;;;;;14.69;39.34;92369.47;4994535;28;20467;-79
2023/04/18 08:06:53;;;;;;;3.55;1.13;;;;;;;14.75;40.59;92368.22;4995185;28;20030;-79
2023/04/18 08:09:19;;;;;;;4.32;1.30;;;;;;;15.07;40.58;92367.97;4994727;28;20037;-78
2023/04/18 08:11:45;;;;;;;2.63;1.30;;;;;;;14.92;39.02;92363.97;4995161;28;20044;-77
2023/04/18 08:14:11;;;;;;;1.88;1.10;;;;;;;14.68;40.37;92360.03;4994791;28;20385;-77
2023/04/18 08:16:37;;;;;;;1.02;0.85;;;;;;;14.91;40.29;92375.63;4994672;28;20049;-77
2023/04/18 08:19:02;;;;;;;1.63;1.02;;;;;;;14.78;38.14;92369.44;4994204;28;20030;-77
2023/04/18 08:21:30;;;;;;;4.15;1.20;;;;;;;14.98;40.62;92368.00;4992941;28;20034;-77
2023/04/18 08:23:55;;;;;;;2.03;1.30;;;;;;;15.10;38.02;92369.97;4994661;28;20042;-77
2023/04/18 08:26:32;;;;;;;12.50;1.85;;;;;;;14.84;38.92;92367.41;4994479;28;20030;-77
2023/04/18 08:28:58;;;;;;;2.78;1.15;;;;;;;14.97;38.03;92371.69;4994785;28;20112;-77
2023/04/18 08:31:23;;;;;;;2.83;1.10;;;;;;;15.11;37.15;92369.66;4993165;28;20038;-78
2023/04/18 08:33:49;;;;;;;4.07;0.98;;;;;;;15.43;37.92;92364.84;4991913;28;20045;-76
2023/04/18 08:36:14;;;;;;;1.33;1.02;;;;;;;15.24;37.94;92373.16;4992941;28;20038;-77
2023/04/18 08:38:40;;;;;;;1.55;1.13;;;;;;;15.19;38.12;92370.69;4992388;28;20411;-77
2023/04/18 08:41:07;;;;;;;2.53;1.10;;;;;;;15.17;38.15;92365.72;4992522;28;20361;-77
2023/04/18 08:43:32;;;;;;;2.80;1.30;;;;;;;15.07;39.21;92371.38;5006296;28;20048;-76
2023/04/18 08:45:59;;;;;;;1.55;1.02;;;;;;;15.27;40.95;92369.13;5011687;28;20038;-78
2023/04/18 08:48:28;;;;;;;1.73;1.20;;;;;;;15.26;40.72;92372.84;5014560;28;20042;-77
2023/04/18 08:50:58;;;;;;;3.42;1.08;;;;;;;15.28;40.67;92373.28;5013075;28;20034;-76
2023/04/18 08:53:31;;;;;;;7.10;1.20;;;;;;;15.24;40.55;92380.28;4996105;28;20045;-77
2023/04/18 08:55:59;;;;;;;1.10;0.98;;;;;;;15.15;40.06;92375.03;4995757;28;20404;-77
2023/04/18 08:58:26;;;;;;;1.55;1.00;;;;;;;15.33;39.43;92378.38;5011795;28;20041;-78
2023/04/18 09:00:55;;;;;;;1.60;1.00;;;;;;;15.26;37.80;92378.09;4996506;28;20128;-77
2023/04/18 09:03:36;;;;;;;1.85;1.10;;;;;;;15.22;39.32;92382.47;4995036;28;20054;-77
2023/04/18 09:06:11;;;;;;;2.75;1.48;;;;;;;15.44;38.40;92374.28;4995320;28;20424;-77
2023/04/18 09:08:37;;;;;;;1.45;1.00;;;;;;;15.35;37.84;92365.66;4996992;28;20043;-78
2023/04/18 09:11:22;;;;;;;4.18;1.40;;;;;;;15.25;37.58;92374.72;4996723;28;20038;-78
2023/04/18 09:13:49;;;;;;;1.35;0.98;;;;;;;15.30;38.57;92379.03;4995801;28;20049;-77
2023/04/18 09:16:19;;;;;;;1.23;1.00;;;;;;;15.18;38.23;92388.38;4999942;28;20145;-77
2023/04/18 09:19:08;;;;;;;3.15;1.60;;;;;;;15.29;37.63;92377.47;4995008;28;20039;-77
2023/04/18 09:21:37;;;;;;;1.45;1.08;;;;;;;15.50;38.11;92370.41;4994085;28;20102;-77
2023/04/18 09:24:25;;;;;;;3.58;1.50;;;;;;;15.30;36.94;92355.28;4993283;28;20484;-76
2023/04/18 09:26:52;;;;;;;1.90;1.20;;;;;;;15.68;38.32;92362.38;4992463;28;20401;-76
2023/04/18 09:29:21;;;;;;;2.55;1.48;;;;;;;15.89;37.36;92376.38;4990358;28;20042;-76
2023/04/18 09:32:00;;;;;;;2.15;1.30;;;;;;;15.89;36.29;92372.97;4991322;28;20121;-75
2023/04/18 09:34:29;;;;;;;2.08;1.25;;;;;;;15.91;37.35;92366.28;4991784;28;20061;-76
2023/04/18 09:37:09;;;;;;;6.10;1.50;;;;;;;15.89;37.76;92357.91;4991655;28;20117;-76
2023/04/18 09:39:36;;;;;;;2.03;1.27;;;;;;;16.03;38.75;92374.28;4991584;28;20464;-76
2023/04/18 09:42:01;;;;;;;2.30;1.33;;;;;;;15.66;36.60;92365.34;4991564;28;20042;-75
2023/04/18 09:44:28;;;;;;;1.67;1.20;;;;;;;15.62;37.55;92375.75;4991541;28;20042;-76
2023/04/18 09:46:53;;;;;;;2.78;1.38;;;;;;;15.71;36.54;92377.59;4991485;28;20026;-76
2023/04/18 09:49:19;;;;;;;1.95;1.20;;;;;;;15.81;37.42;92374.59;4990257;28;20042;-75
2023/04/18 09:51:45;;;;;;;1.40;0.95;;;;;;;15.77;36.92;92366.53;4992145;28;20419;-75
2023/04/18 09:54:15;;;;;;;2.80;1.70;;;;;;;16.05;37.40;92367.91;4991107;28;20042;-75
2023/04/18 09:56:44;;;;;;;2.83;1.17;;;;;;;16.21;37.80;92374.94;4994745;28;20141;-75
2023/04/18 09:59:16;;;;;;;3.22;1.10;;;;;;;16.09;37.27;92366.16;4993676;28;20058;-75
2023/04/18 10:01:46;;;;;;;1.45;1.17;;;;;;;16.02;36.21;92359.53;4995336;28;20038;-75
2023/04/18 10:04:15;;;;;;;1.95;1.17;;;;;;;15.90;35.83;92362.09;5010176;28;20062;-75
2023/04/18 10:06:44;;;;;;;1.00;0.82;;;;;;;16.15;37.87;92370.16;4995720;28;20073;-75
2023/04/18 10:09:10;;;;;;;2.42;1.30;;;;;;;15.65;36.34;92363.81;4995226;28;20038;-77
2023/04/18 10:11:36;;;;;;;0.95;0.85;;;;;;;15.67;37.80;92371.38;4977282;28;20083;-77
2023/04/18 10:14:06;;;;;;;2.10;1.20;;;;;;;15.47;36.92;92362.31;4994837;28;20125;-77
2023/04/18 10:16:32;;;;;;;1.33;0.88;;;;;;;15.43;38.16;92364.84;4994597;28;20034;-77
2023/04/18 10:19:22;;;;;;;2.00;1.20;;;;;;;14.95;38.19;92368.59;4977413;28;20069;-77
2023/04/18 10:21:56;;;;;;;2.53;1.27;;;;;;;14.99;38.82;92369.53;4988882;28;20509;-76
2023/04/18 10:24:48;;;;;;;1.88;1.27;;;;;;;14.91;39.20;92362.44;4993046;28;20504;-75
2023/04/18 10:27:16;;;;;;;2.00;1.40;;;;;;;14.90;38.65;92363.50;4992919;28;20046;-76
2023/04/18 10:29:49;;;;;;;2.28;1.25;;;;;;;14.84;39.43;92365.56;4994065;28;20042;-76
2023/04/18 10:32:18;;;;;;;0.80;0.80;;;;;;;14.75;38.48;92364.81;4996539;28;20137;-78
2023/04/18 10:34:53;;;;;;;1.58;1.00;;;;;;;14.64;38.95;92361.75;5009939;28;20121;-76
2023/04/18 10:37:18;;;;;;;2.10;1.30;;;;;;;14.68;38.92;92365.28;4994843;28;20485;-75
2023/04/18 10:39:59;;;;;;;3.22;1.38;;;;;;;14.68;39.06;92360.03;4995114;28;20030;-76
2023/04/18 10:42:46;;;;;;;2.00;1.30;;;;;;;14.79;38.32;92365.72;4994977;28;20445;-76
2023/04/18 10:45:20;;;;;;;1.95;1.27;;;;;;;14.94;37.69;92359.16;4995559;28;20109;-76
2023/04/18 10:47:45;;;;;;;2.35;1.20;;;;;;;15.05;37.72;92360.38;4993474;28;20034;-76
2023/04/18 10:50:11;;;;;;;1.90;1.27;;;;;;;15.06;37.16;92354.00;4995270;28;20034;-76
2023/04/18 10:52:37;;;;;;;2.53;1.40;;;;;;;15.12;35.77;92338.78;4995323;28;20065;-77
2023/04/18 10:55:18;;;;;;;2.17;1.40;;;;;;;15.34;36.56;92348.31;4994371;28;20034;-75
2023/04/18 10:57:48;;;;;;;1.50;1.20;;;;;;;15.45;37.67;92344.22;4994021;28;20100;-76
2023/04/18 11:00:17;;;;;;;1.60;1.10;;;;;;;15.73;36.13;92341.09;4992940;28;20042;-76
2023/04/18 11:02:55;;;;;;;1.65;1.00;;;;;;;16.02;32.55;92333.13;4993891;28;20076;-76
2023/04/18 11:05:23;;;;;;;2.50;1.10;;;;;;;15.89;34.31;92339.44;4994126;28;20058;-76
2023/04/18 11:07:49;;;;;;;0.70;0.70;;;;;;;15.90;34.21;92333.06;4994021;28;20080;-76
2023/04/18 11:10:20;;;;;;;1.52;1.10;;;;;;;15.51;35.05;92337.63;4992817;28;20046;-76
2023/04/18 11:12:46;;;;;;;2.42;1.30;;;;;;;15.53;35.95;92332.03;5009202;28;20030;-76
2023/04/18 11:15:16;;;;;;;1.38;1.10;;;;;;;15.68;35.24;92328.09;4994086;28;20507;-76
2023/04/18 11:17:42;;;;;;;1.80;1.08;;;;;;;15.79;34.57;92326.63;4994053;28;20049;-76
2023/04/18 11:20:13;;;;;;;1.90;0.93;;;;;;;15.79;35.06;92321.34;5008756;28;20034;-76
2023/04/18 11:22:56;;;;;;;0.98;0.82;;;;;;;15.88;33.26;92323.94;4992634;28;20052;-76
2023/04/18 11:25:30;;;;;;;7.38;1.60;;;;;;;15.87;34.26;92320.50;4994042;28;20034;-76
2023/04/18 11:28:01;;;;;;;2.55;1.17;;;;;;;15.80;34.79;92325.53;4993937;28;20061;-76
2023/04/18 11:30:34;;;;;;;1.15;1.05;;;;;;;15.62;33.12;92328.25;4993590;28;20046;-76
2023/04/18 11:33:04;;;;;;;3.25;1.00;;;;;;;15.54;34.59;92326.47;5008495;28;20035;-76
2023/04/18 11:35:30;;;;;;;1.00;0.90;;;;;;;15.46;36.48;92326.50;4993138;28;20438;-77
2023/04/18 11:37:55;;;;;;;1.40;1.00;;;;;;;15.39;34.03;92330.41;4993678;28;20133;-76
2023/04/18 11:40:21;;;;;;;1.70;1.10;;;;;;;15.55;34.29;92330.63;4993481;28;20043;-77